Time;durP1;ratioP1;P1;durP2;ratioP2;P2;SDS_P1;SDS_P2;PMS_P1;PMS_P2;Temp;Humidity;BMP_temperature;BMP_pressure;BME280_temperature;BME280_humidity;BME280_pressure;Samples;Min_cycle;Max_cycle;Signal;HPM_P1;HPM_P2
2021/09/17 00:01:43;;;;;;;24.58;16.85;;;15.70;99.90;;;;;;4856051;29;20129;-76
2021/09/17 00:04:09;;;;;;;23.17;16.88;;;15.70;99.90;;;;;;4855930;29;20049;-77
2021/09/17 00:06:35;;;;;;;26.30;17.17;;;15.70;99.90;;;;;;4856222;29;20137;-77
2021/09/17 00:09:00;;;;;;;23.75;17.50;;;15.70;99.90;;;;;;4856033;29;20057;-77
2021/09/17 00:11:26;;;;;;;26.13;17.83;;;15.80;99.90;;;;;;4855370;29;20054;-77
2021/09/17 00:13:52;;;;;;;23.38;17.50;;;15.70;99.90;;;;;;4840053;29;20471;-76
2021/09/17 00:16:18;;;;;;;21.33;17.88;;;15.60;99.90;;;;;;4855970;29;20048;-75
2021/09/17 00:18:44;;;;;;;23.30;17.95;;;15.70;99.90;;;;;;4855693;29;20101;-75
2021/09/17 00:21:10;;;;;;;22.80;17.85;;;15.60;99.90;;;;;;4855439;29;20046;-75
2021/09/17 00:23:36;;;;;;;26.40;18.90;;;15.60;99.90;;;;;;4856051;29;20064;-75
2021/09/17 00:26:02;;;;;;;24.10;18.17;;;15.60;99.90;;;;;;4855645;29;20057;-76
2021/09/17 00:28:28;;;;;;;30.48;19.15;;;15.60;99.90;;;;;;4855728;29;20052;-76
2021/09/17 00:30:54;;;;;;;27.08;18.73;;;15.60;99.90;;;;;;4856481;29;20053;-76
2021/09/17 00:33:20;;;;;;;26.88;18.45;;;15.60;99.90;;;;;;4856111;29;20128;-76
2021/09/17 00:35:45;;;;;;;26.65;18.35;;;15.60;99.90;;;;;;4840588;29;20049;-75
2021/09/17 00:38:14;;;;;;;24.45;18.73;;;15.60;99.90;;;;;;4857535;29;20046;-76
2021/09/17 00:40:40;;;;;;;27.65;19.40;;;15.60;99.90;;;;;;4839838;29;20045;-76
2021/09/17 00:43:06;;;;;;;27.95;18.33;;;15.60;99.90;;;;;;4856026;29;20053;-76
2021/09/17 00:45:31;;;;;;;25.92;18.33;;;15.60;99.90;;;;;;4825281;29;20064;-76
2021/09/17 00:47:57;;;;;;;25.52;18.67;;;15.50;99.90;;;;;;4854942;29;20045;-76
2021/09/17 00:50:26;;;;;;;25.10;19.23;;;15.50;99.90;;;;;;4855392;29;20048;-76
2021/09/17 00:52:56;;;;;;;25.52;18.38;;;15.60;99.90;;;;;;4855400;29;20045;-76
2021/09/17 00:55:23;;;;;;;28.42;19.52;;;15.50;99.90;;;;;;4855749;29;20048;-75
2021/09/17 00:57:48;;;;;;;29.02;19.35;;;15.50;99.90;;;;;;4854441;29;20138;-76
2021/09/17 01:00:15;;;;;;;24.38;19.05;;;15.50;99.90;;;;;;4838344;29;20486;-76
2021/09/17 01:02:42;;;;;;;29.30;19.33;;;15.50;99.90;;;;;;4839314;29;20077;-76
2021/09/17 01:05:22;;;;;;;30.67;19.55;;;15.50;99.90;;;;;;4858898;29;20046;-76
2021/09/17 01:07:48;;;;;;;29.77;20.70;;;15.50;99.90;;;;;;4843631;29;20045;-79
2021/09/17 01:10:16;;;;;;;26.52;19.75;;;15.50;99.90;;;;;;4860979;29;20099;-79
2021/09/17 01:12:43;;;;;;;26.67;19.52;;;15.50;99.90;;;;;;4858506;29;20516;-78
2021/09/17 01:15:21;;;;;;;27.55;19.30;;;16.00;99.90;;;;;;4857189;29;20088;-78
2021/09/17 01:17:48;;;;;;;27.40;19.77;;;15.50;99.90;;;;;;4812602;29;20144;-78
2021/09/17 01:20:19;;;;;;;27.52;19.75;;;15.50;99.90;;;;;;4828354;29;20095;-78
2021/09/17 01:22:47;;;;;;;24.38;19.60;;;15.50;99.90;;;;;;4865573;29;20076;-85
2021/09/17 01:25:16;;;;;;;25.38;19.08;;;15.50;99.90;;;;;;4874195;29;20057;-87
2021/09/17 01:27:44;;;;;;;26.90;19.77;;;15.50;99.90;;;;;;4858354;29;20109;-88
2021/09/17 01:30:12;;;;;;;31.70;18.98;;;15.50;99.90;;;;;;4843565;29;20124;-88
2021/09/17 01:32:41;;;;;;;29.90;19.45;;;15.80;99.90;;;;;;4858174;29;20109;-86
2021/09/17 01:35:12;;;;;;;31.08;19.95;;;15.50;99.90;;;;;;4860318;29;20510;-86
2021/09/17 01:37:39;;;;;;;25.67;19.90;;;15.50;99.90;;;;;;4859240;29;20049;-87
2021/09/17 01:40:07;;;;;;;24.55;19.80;;;15.40;99.90;;;;;;4859040;29;20444;-86
2021/09/17 01:42:36;;;;;;;25.90;20.50;;;15.40;99.90;;;;;;4859205;29;20052;-87
2021/09/17 01:45:06;;;;;;;29.67;20.27;;;15.40;99.90;;;;;;4858471;29;20042;-87
2021/09/17 01:47:32;;;;;;;26.17;20.73;;;15.30;99.90;;;;;;4843673;29;20162;-86
2021/09/17 01:49:58;;;;;;;24.50;19.83;;;15.30;99.90;;;;;;4857612;29;20141;-87
2021/09/17 01:52:24;;;;;;;28.20;18.85;;;15.30;99.90;;;;;;4860134;29;20037;-87
2021/09/17 01:54:52;;;;;;;27.50;19.33;;;15.30;99.90;;;;;;4843364;29;20068;-88
2021/09/17 01:57:21;;;;;;;29.38;20.10;;;15.30;99.90;;;;;;4859159;29;20049;-88
2021/09/17 01:59:47;;;;;;;28.48;18.80;;;15.30;99.90;;;;;;4860674;29;20118;-87
2021/09/17 02:02:13;;;;;;;25.98;20.45;;;15.20;99.90;;;;;;4859085;29;20054;-88
2021/09/17 02:04:39;;;;;;;27.58;20.67;;;15.30;99.90;;;;;;4860258;29;20102;-87
2021/09/17 02:07:12;;;;;;;26.95;21.30;;;15.20;99.90;;;;;;4844211;29;20050;-87
2021/09/17 02:09:39;;;;;;;29.60;20.27;;;15.30;99.90;;;;;;4843271;29;20041;-87
2021/09/17 02:12:05;;;;;;;26.63;20.73;;;15.20;99.90;;;;;;4859977;29;20048;-87
2021/09/17 02:14:31;;;;;;;25.25;20.13;;;15.30;99.90;;;;;;4858650;29;20054;-87
2021/09/17 02:16:57;;;;;;;29.75;19.98;;;15.20;99.90;;;;;;4843719;29;20040;-87
2021/09/17 02:19:23;;;;;;;27.38;20.33;;;15.20;99.90;;;;;;4844055;29;20045;-87
2021/09/17 02:21:50;;;;;;;26.50;20.05;;;15.00;99.90;;;;;;4843138;29;20064;-88
2021/09/17 02:24:17;;;;;;;29.45;20.50;;;15.20;99.90;;;;;;4857893;29;20045;-86
2021/09/17 02:26:46;;;;;;;28.85;21.20;;;15.20;99.90;;;;;;4858316;29;20037;-86
2021/09/17 02:29:12;;;;;;;24.98;20.20;;;15.20;99.90;;;;;;4843374;29;20113;-87
2021/09/17 02:31:38;;;;;;;25.90;20.25;;;15.10;99.90;;;;;;4844731;29;20049;-87
2021/09/17 02:34:04;;;;;;;24.90;20.50;;;15.20;99.90;;;;;;4858539;29;20045;-87
2021/09/17 02:36:30;;;;;;;25.73;20.08;;;15.10;99.90;;;;;;4858887;29;20048;-87
2021/09/17 02:38:56;;;;;;;25.73;19.83;;;15.10;99.90;;;;;;4858516;29;20075;-87
2021/09/17 02:41:22;;;;;;;25.70;19.83;;;15.10;99.90;;;;;;4842059;29;20073;-87
2021/09/17 02:43:48;;;;;;;28.90;20.50;;;14.80;99.90;;;;;;4843173;29;20057;-87
2021/09/17 02:46:14;;;;;;;25.05;20.05;;;15.10;99.90;;;;;;4858711;29;20419;-87
2021/09/17 02:48:43;;;;;;;26.42;20.30;;;15.10;99.90;;;;;;4858081;29;20041;-86
2021/09/17 02:51:12;;;;;;;23.40;19.33;;;15.20;99.90;;;;;;4843212;29;20057;-86
2021/09/17 02:53:38;;;;;;;26.55;21.45;;;15.20;99.90;;;;;;4858948;29;20105;-79
2021/09/17 02:56:04;;;;;;;26.95;20.52;;;15.20;99.90;;;;;;4841755;29;20045;-79
2021/09/17 02:58:30;;;;;;;27.60;21.10;;;15.20;99.90;;;;;;4854940;29;20624;-78
2021/09/17 03:00:56;;;;;;;26.73;20.70;;;15.20;99.90;;;;;;4857149;29;20128;-79
2021/09/17 03:03:22;;;;;;;29.80;22.52;;;15.20;99.90;;;;;;4857531;29;20046;-79
2021/09/17 03:05:51;;;;;;;26.33;20.95;;;15.20;99.90;;;;;;4856985;29;20651;-78
2021/09/17 03:08:16;;;;;;;26.45;20.40;;;15.20;99.90;;;;;;4856608;29;20189;-79
2021/09/17 03:10:42;;;;;;;26.25;21.25;;;15.20;99.90;;;;;;4841368;29;20546;-79
2021/09/17 03:13:11;;;;;;;25.48;21.00;;;15.20;99.90;;;;;;4841917;29;20528;-79
2021/09/17 03:15:37;;;;;;;30.35;21.65;;;15.20;99.90;;;;;;4825972;29;20049;-79
2021/09/17 03:18:06;;;;;;;26.33;20.98;;;15.20;99.90;;;;;;4856226;29;20068;-79
2021/09/17 03:20:32;;;;;;;27.08;21.27;;;15.20;99.90;;;;;;4856849;29;20049;-78
2021/09/17 03:23:00;;;;;;;28.75;21.60;;;15.10;99.90;;;;;;4841462;29;20136;-79
2021/09/17 03:25:28;;;;;;;30.95;20.92;;;15.20;99.90;;;;;;4856229;29;20042;-78
2021/09/17 03:27:54;;;;;;;27.52;21.98;;;15.20;99.90;;;;;;4855594;29;20042;-79
2021/09/17 03:30:20;;;;;;;26.33;20.05;;;15.10;99.90;;;;;;4855168;29;20051;-80
2021/09/17 03:32:46;;;;;;;26.98;21.40;;;15.20;99.90;;;;;;4856471;29;20038;-80
2021/09/17 03:35:12;;;;;;;27.23;21.60;;;15.20;99.90;;;;;;4856931;29;20053;-80
2021/09/17 03:37:38;;;;;;;28.25;21.85;;;15.20;99.90;;;;;;4841934;29;20060;-79
2021/09/17 03:40:07;;;;;;;28.55;22.33;;;15.20;99.90;;;;;;4854311;29;20055;-79
2021/09/17 03:42:33;;;;;;;27.30;21.83;;;15.20;99.90;;;;;;4840740;29;20056;-79
2021/09/17 03:44:59;;;;;;;27.08;21.48;;;15.20;99.90;;;;;;4825231;29;20042;-80
2021/09/17 03:47:28;;;;;;;26.52;21.05;;;15.10;99.90;;;;;;4840997;29;20480;-80
2021/09/17 03:49:54;;;;;;;29.65;21.17;;;15.20;99.90;;;;;;4856573;29;20052;-79
2021/09/17 03:52:25;;;;;;;24.52;20.27;;;15.10;99.90;;;;;;4856438;29;20057;-84
2021/09/17 03:54:51;;;;;;;31.02;22.60;;;15.10;99.90;;;;;;4843054;29;20121;-85
2021/09/17 03:57:17;;;;;;;27.20;20.95;;;15.20;99.90;;;;;;4842657;29;20486;-85
2021/09/17 03:59:43;;;;;;;28.25;21.80;;;15.20;99.90;;;;;;4844537;29;20064;-85
2021/09/17 04:02:09;;;;;;;29.40;22.27;;;15.10;99.90;;;;;;4870008;29;20041;-86
2021/09/17 04:04:35;;;;;;;25.88;20.92;;;15.10;99.90;;;;;;4849441;29;21046;-87
2021/09/17 04:07:01;;;;;;;33.55;21.80;;;15.10;99.90;;;;;;4857882;29;20061;-86
2021/09/17 04:09:27;;;;;;;28.20;22.30;;;15.10;99.90;;;;;;4811438;29;20403;-87
2021/09/17 04:11:53;;;;;;;31.05;22.48;;;15.10;99.90;;;;;;4826958;29;20041;-86
2021/09/17 04:14:21;;;;;;;31.13;23.08;;;15.10;99.90;;;;;;4856353;29;20493;-86
2021/09/17 04:16:47;;;;;;;26.67;21.48;;;15.20;99.90;;;;;;4826914;29;20087;-87
2021/09/17 04:19:13;;;;;;;28.05;21.88;;;15.20;99.90;;;;;;4857098;29;20511;-87
2021/09/17 04:21:39;;;;;;;30.63;23.80;;;15.20;99.90;;;;;;4843332;29;20044;-87
2021/09/17 04:24:08;;;;;;;32.03;23.40;;;15.20;99.90;;;;;;4858791;29;20041;-86
2021/09/17 04:26:34;;;;;;;27.77;22.90;;;15.20;99.90;;;;;;4843340;29;20131;-80
2021/09/17 04:29:00;;;;;;;30.65;22.48;;;15.20;99.90;;;;;;4839600;29;20077;-79
2021/09/17 04:31:26;;;;;;;32.45;23.73;;;15.20;99.90;;;;;;4855234;29;20461;-79
2021/09/17 04:33:52;;;;;;;31.50;24.05;;;15.00;99.90;;;;;;4840193;29;20375;-79
2021/09/17 04:36:17;;;;;;;29.88;23.90;;;15.20;99.90;;;;;;4825787;29;20052;-79
2021/09/17 04:38:43;;;;;;;32.05;25.33;;;15.20;99.90;;;;;;4859765;29;20049;-79
2021/09/17 04:41:09;;;;;;;30.40;23.63;;;15.20;99.90;;;;;;4860056;29;20049;-79
2021/09/17 04:43:35;;;;;;;27.95;22.92;;;15.20;99.90;;;;;;4844191;29;20049;-79
2021/09/17 04:46:02;;;;;;;30.98;24.10;;;15.20;99.90;;;;;;4858385;29;20045;-79
2021/09/17 04:48:28;;;;;;;33.42;23.83;;;15.20;99.90;;;;;;4843528;29;20390;-79
2021/09/17 04:50:54;;;;;;;31.33;23.70;;;15.20;99.90;;;;;;4843878;29;20129;-79
2021/09/17 04:53:19;;;;;;;29.77;22.77;;;15.20;99.90;;;;;;4843721;29;20053;-79
2021/09/17 04:55:51;;;;;;;29.55;23.83;;;15.30;99.90;;;;;;4859196;29;20057;-80
2021/09/17 04:58:20;;;;;;;31.13;24.13;;;15.30;99.90;;;;;;4859532;29;20084;-79
2021/09/17 05:00:46;;;;;;;31.92;24.65;;;15.20;99.90;;;;;;4859025;29;20079;-79
2021/09/17 05:03:12;;;;;;;31.10;23.90;;;15.20;99.90;;;;;;4843309;29;20136;-79
2021/09/17 05:05:38;;;;;;;29.90;23.33;;;15.20;99.90;;;;;;4842121;29;20161;-79
2021/09/17 05:08:04;;;;;;;37.55;25.33;;;15.20;99.90;;;;;;4844434;29;20048;-79
2021/09/17 05:10:30;;;;;;;30.27;23.65;;;15.20;99.90;;;;;;4859250;29;20057;-80
2021/09/17 05:12:56;;;;;;;31.17;23.70;;;15.20;99.90;;;;;;4843572;29;20406;-80
2021/09/17 05:15:22;;;;;;;30.80;23.90;;;15.20;99.90;;;;;;4858971;29;20041;-79
2021/09/17 05:17:50;;;;;;;29.58;23.02;;;15.20;99.90;;;;;;4859295;29;20517;-80
2021/09/17 05:20:18;;;;;;;31.88;23.75;;;15.20;99.90;;;;;;4857615;29;20050;-79
2021/09/17 05:22:44;;;;;;;29.27;23.45;;;15.30;99.90;;;;;;4843628;29;20056;-79
2021/09/17 05:25:10;;;;;;;28.52;23.35;;;15.30;99.90;;;;;;4858090;29;20481;-79
2021/09/17 05:27:37;;;;;;;28.27;23.60;;;15.30;99.90;;;;;;4857948;29;20815;-79
2021/09/17 05:30:07;;;;;;;28.55;22.80;;;15.30;99.90;;;;;;4827845;29;20045;-80
2021/09/17 05:32:33;;;;;;;28.33;22.38;;;15.30;99.90;;;;;;4859858;29;20038;-79
2021/09/17 05:34:58;;;;;;;30.42;22.83;;;15.40;99.90;;;;;;4842971;29;20371;-79
2021/09/17 05:37:24;;;;;;;29.02;22.25;;;15.40;99.90;;;;;;4842649;29;20048;-79
2021/09/17 05:39:50;;;;;;;27.70;22.38;;;15.40;99.90;;;;;;4858019;29;20454;-79
2021/09/17 05:42:16;;;;;;;35.53;22.38;;;15.40;99.90;;;;;;4858548;29;20058;-79
2021/09/17 05:44:42;;;;;;;26.83;22.00;;;15.40;99.90;;;;;;4858097;29;20051;-79
2021/09/17 05:47:08;;;;;;;30.05;21.27;;;15.40;99.90;;;;;;4841746;29;20428;-79
2021/09/17 05:49:34;;;;;;;29.13;21.92;;;15.40;99.90;;;;;;4856759;29;20040;-79
2021/09/17 05:52:00;;;;;;;28.02;22.52;;;15.40;99.90;;;;;;4842350;29;20072;-79
2021/09/17 05:54:27;;;;;;;30.58;23.02;;;15.50;99.90;;;;;;4857037;29;20053;-79
2021/09/17 05:56:53;;;;;;;28.38;22.27;;;15.40;99.90;;;;;;4857377;29;20500;-79
2021/09/17 05:59:22;;;;;;;29.35;22.55;;;15.50;99.90;;;;;;4842892;29;20046;-79
2021/09/17 06:01:49;;;;;;;29.55;22.63;;;15.40;99.90;;;;;;4858615;29;20506;-79
2021/09/17 06:04:15;;;;;;;31.92;23.08;;;15.50;99.90;;;;;;4857841;29;20077;-79
2021/09/17 06:06:41;;;;;;;32.95;24.30;;;15.50;99.90;;;;;;4826394;29;20038;-79
2021/09/17 06:09:07;;;;;;;33.22;23.95;;;15.50;99.90;;;;;;4857288;29;20380;-79
2021/09/17 06:11:33;;;;;;;29.98;23.88;;;15.50;99.90;;;;;;4856252;29;20055;-79
2021/09/17 06:14:00;;;;;;;31.48;25.27;;;15.50;99.90;;;;;;4858473;29;20050;-79
2021/09/17 06:16:26;;;;;;;31.48;24.55;;;15.50;99.90;;;;;;4858505;29;20052;-79
2021/09/17 06:18:52;;;;;;;31.60;23.25;;;15.50;99.90;;;;;;4858331;29;20050;-77
2021/09/17 06:21:20;;;;;;;32.88;24.08;;;16.20;99.90;;;;;;4842655;29;20045;-77
2021/09/17 06:23:46;;;;;;;28.95;23.58;;;15.50;99.90;;;;;;4854820;29;20059;-79
2021/09/17 06:26:15;;;;;;;35.25;23.33;;;15.50;99.90;;;;;;4857742;29;20049;-79
2021/09/17 06:28:41;;;;;;;30.60;24.05;;;15.50;99.90;;;;;;4841892;29;20132;-79
2021/09/17 06:31:07;;;;;;;29.67;23.77;;;16.00;99.90;;;;;;4842186;29;20120;-79
2021/09/17 06:33:33;;;;;;;33.17;23.52;;;15.50;99.90;;;;;;4841700;29;20037;-79
2021/09/17 06:35:59;;;;;;;32.78;23.65;;;15.50;99.90;;;;;;4851531;29;20078;-81
2021/09/17 06:38:25;;;;;;;29.73;23.95;;;15.50;99.90;;;;;;4857707;29;20053;-81
2021/09/17 06:40:51;;;;;;;39.20;23.58;;;15.50;99.90;;;;;;4857531;29;20399;-81
2021/09/17 06:43:16;;;;;;;34.53;24.10;;;15.60;99.90;;;;;;4842453;29;20426;-81
2021/09/17 06:45:42;;;;;;;27.63;22.05;;;15.60;99.90;;;;;;4855528;29;20057;-79
2021/09/17 06:48:08;;;;;;;32.65;24.35;;;15.60;99.90;;;;;;4856960;29;20407;-79
2021/09/17 06:50:37;;;;;;;31.52;23.42;;;15.60;99.90;;;;;;4855762;29;20105;-80
2021/09/17 06:53:04;;;;;;;34.83;23.55;;;15.70;99.90;;;;;;4841642;29;20053;-80
2021/09/17 06:55:31;;;;;;;34.05;23.70;;;15.80;99.90;;;;;;4841617;29;20140;-80
2021/09/17 06:58:03;;;;;;;31.60;23.25;;;15.80;99.90;;;;;;4855944;29;20041;-80
2021/09/17 07:00:37;;;;;;;28.60;22.10;;;15.80;99.90;;;;;;4854078;29;20065;-84
2021/09/17 07:03:29;;;;;;;29.45;23.23;;;15.80;99.90;;;;;;4855775;29;20045;-87
2021/09/17 07:06:00;;;;;;;27.83;21.00;;;15.80;99.90;;;;;;4856686;29;20050;-87
2021/09/17 07:08:26;;;;;;;24.80;19.73;;;16.10;99.90;;;;;;4842435;29;20037;-84
2021/09/17 07:10:52;;;;;;;26.80;20.38;;;15.70;99.90;;;;;;4868136;29;20033;-88
2021/09/17 07:13:18;;;;;;;24.80;18.58;;;16.10;99.90;;;;;;4857706;29;20044;-89
2021/09/17 07:15:44;;;;;;;24.90;19.33;;;16.10;99.90;;;;;;4856294;29;20057;-86
2021/09/17 07:18:43;;;;;;;26.58;18.63;;;16.60;99.90;;;;;;4856671;29;20065;-83
2021/09/17 07:21:20;;;;;;;25.13;17.15;;;16.20;99.90;;;;;;4828319;29;20080;-83
2021/09/17 07:23:49;;;;;;;24.02;16.70;;;16.30;99.90;;;;;;4839915;29;20062;-83
2021/09/17 07:26:37;;;;;;;23.17;16.05;;;16.30;99.90;;;;;;4839404;29;20064;-83
2021/09/17 07:29:16;;;;;;;23.30;16.30;;;16.20;99.90;;;;;;4856022;29;20155;-83
2021/09/17 07:31:45;;;;;;;22.48;15.15;;;16.40;99.90;;;;;;4854563;29;20529;-83
2021/09/17 07:34:19;;;;;;;17.73;15.07;;;16.40;99.90;;;;;;4840502;29;20049;-83
2021/09/17 07:36:54;;;;;;;21.45;16.00;;;16.50;99.90;;;;;;4841425;29;20137;-83
2021/09/17 07:39:57;;;;;;;24.30;14.60;;;16.50;99.90;;;;;;4841070;29;20132;-83
2021/09/17 07:42:53;;;;;;;17.63;14.38;;;16.70;99.90;;;;;;4839511;29;20049;-83
2021/09/17 07:45:31;;;;;;;17.75;14.05;;;16.60;99.90;;;;;;4842812;29;20054;-83
2021/09/17 07:48:16;;;;;;;18.40;13.20;;;17.10;99.90;;;;;;4826700;29;20064;-83
2021/09/17 07:50:51;;;;;;;18.02;12.52;;;16.70;99.90;;;;;;4824742;29;20053;-84
2021/09/17 07:53:45;;;;;;;14.80;11.35;;;16.60;99.90;;;;;;4827039;29;20117;-83
2021/09/17 07:56:32;;;;;;;16.08;10.75;;;16.70;99.90;;;;;;4845185;29;20056;-84
2021/09/17 07:59:11;;;;;;;15.70;10.32;;;16.50;99.90;;;;;;4827047;29;20052;-83
2021/09/17 08:01:37;;;;;;;14.73;11.25;;;16.70;99.90;;;;;;4841634;29;20041;-83
2021/09/17 08:04:19;;;;;;;14.70;9.23;;;16.80;99.90;;;;;;4841918;29;20093;-82
2021/09/17 08:06:51;;;;;;;11.90;8.50;;;16.80;99.90;;;;;;4829150;29;20057;-82
2021/09/17 08:09:20;;;;;;;21.00;12.63;;;16.80;99.90;;;;;;4827969;29;20133;-82
2021/09/17 08:12:04;;;;;;;21.90;13.85;;;16.80;99.90;;;;;;4845055;29;20057;-82
2021/09/17 08:14:30;;;;;;;11.18;7.70;;;16.90;99.90;;;;;;4841371;29;20132;-82
2021/09/17 08:17:04;;;;;;;12.75;6.50;;;17.10;99.90;;;;;;4841705;29;20053;-83
2021/09/17 08:19:33;;;;;;;10.57;6.50;;;17.00;99.90;;;;;;4861771;29;20049;-91
2021/09/17 08:21:59;;;;;;;8.27;5.10;;;16.90;99.90;;;;;;4848813;29;20438;-95
2021/09/17 08:24:25;;;;;;;9.73;5.35;;;17.00;99.90;;;;;;4859763;29;20517;-84
2021/09/17 08:26:52;;;;;;;6.93;4.53;;;17.00;99.90;;;;;;4870536;29;20045;-85
2021/09/17 08:29:19;;;;;;;8.65;4.95;;;17.10;99.90;;;;;;4859653;29;20065;-85
2021/09/17 08:31:49;;;;;;;10.85;6.80;;;17.10;99.90;;;;;;4845278;29;20350;-85
2021/09/17 08:34:53;;;;;;;10.55;8.15;;;17.10;99.90;;;;;;4845033;29;20463;-85
2021/09/17 08:37:23;;;;;;;10.82;5.57;;;16.90;99.90;;;;;;4860216;29;20120;-85
2021/09/17 08:39:49;;;;;;;9.93;3.78;;;17.10;99.90;;;;;;4856830;29;20045;-85
2021/09/17 08:42:15;;;;;;;6.53;3.25;;;17.20;99.90;;;;;;4841877;29;20056;-85
2021/09/17 08:44:41;;;;;;;5.80;3.22;;;17.20;99.90;;;;;;4856796;29;20097;-85
2021/09/17 08:47:08;;;;;;;7.45;4.38;;;17.20;99.90;;;;;;4841501;29;20073;-86
2021/09/17 08:49:35;;;;;;;9.00;3.88;;;17.20;99.90;;;;;;4857043;29;20102;-86
2021/09/17 08:52:03;;;;;;;6.55;4.30;;;17.30;99.90;;;;;;4840829;29;20045;-86
2021/09/17 08:54:31;;;;;;;6.72;3.03;;;17.40;99.90;;;;;;4851506;29;20056;-83
2021/09/17 08:56:57;;;;;;;6.38;2.70;;;17.40;99.90;;;;;;4855241;29;20041;-82
2021/09/17 08:59:27;;;;;;;6.30;2.97;;;17.40;99.90;;;;;;4854892;29;20049;-80
2021/09/17 09:01:52;;;;;;;7.50;2.80;;;17.40;99.90;;;;;;4853296;29;20108;-83
2021/09/17 09:04:42;;;;;;;;;;;;;;;;;;;;;
2021/09/17 09:07:15;;;;;;;6.28;2.90;;;17.40;99.90;;;;;;4854771;29;20648;-77
2021/09/17 09:09:46;;;;;;;6.03;2.85;;;17.40;99.90;;;;;;4840958;29;20542;-77
2021/09/17 09:12:13;;;;;;;6.78;2.90;;;17.40;99.90;;;;;;4839423;29;20045;-77
2021/09/17 09:14:39;;;;;;;9.43;3.08;;;17.40;99.90;;;;;;4824698;29;20102;-77
2021/09/17 09:17:06;;;;;;;8.35;3.20;;;17.40;99.90;;;;;;4855106;29;20076;-77
2021/09/17 09:19:37;;;;;;;7.38;3.00;;;17.50;99.90;;;;;;4840210;29;20064;-77
2021/09/17 09:22:03;;;;;;;6.20;2.70;;;17.50;99.90;;;;;;4856992;29;20124;-77
2021/09/17 09:24:41;;;;;;;6.82;2.55;;;17.50;99.90;;;;;;4856043;29;20124;-77
2021/09/17 09:27:14;;;;;;;10.30;2.78;;;17.50;99.90;;;;;;4843612;29;20060;-77
2021/09/17 09:29:43;;;;;;;4.80;2.22;;;17.50;99.90;;;;;;4860371;29;20052;-77
2021/09/17 09:32:28;;;;;;;4.80;1.75;;;17.60;99.90;;;;;;4858655;29;20124;-77
2021/09/17 09:35:05;;;;;;;7.32;2.38;;;17.60;99.90;;;;;;4860093;29;20049;-77
2021/09/17 09:37:33;;;;;;;5.15;2.30;;;17.70;99.90;;;;;;4843316;29;20061;-77
2021/09/17 09:40:12;;;;;;;7.38;2.38;;;17.60;99.90;;;;;;4860165;29;20053;-77
2021/09/17 09:42:42;;;;;;;8.23;2.55;;;17.70;99.90;;;;;;4841516;29;20057;-77
2021/09/17 09:45:16;;;;;;;9.45;2.72;;;17.80;99.90;;;;;;4842883;29;20053;-77
2021/09/17 09:47:45;;;;;;;6.50;2.33;;;17.90;99.90;;;;;;4858469;29;20045;-77
2021/09/17 09:50:36;;;;;;;7.88;2.30;;;17.90;99.90;;;;;;4858861;29;20052;-76
2021/09/17 09:53:05;;;;;;;6.10;2.65;;;17.90;99.90;;;;;;4842514;29;20050;-77
2021/09/17 09:55:32;;;;;;;7.10;2.22;;;18.00;99.90;;;;;;4827701;29;20045;-77
2021/09/17 09:57:58;;;;;;;4.57;2.38;;;18.00;99.90;;;;;;4843113;29;20557;-77
2021/09/17 10:00:24;;;;;;;6.38;1.92;;;18.00;99.90;;;;;;4859845;29;20077;-77
2021/09/17 10:02:51;;;;;;;4.53;1.98;;;18.00;99.90;;;;;;4858060;29;20049;-77
2021/09/17 10:05:22;;;;;;;3.33;1.75;;;18.10;99.90;;;;;;4858324;29;20498;-77
2021/09/17 10:07:50;;;;;;;2.97;1.67;;;18.10;99.90;;;;;;4857875;29;20073;-77
2021/09/17 10:10:16;;;;;;;6.88;2.28;;;18.10;99.90;;;;;;4843118;29;20042;-77
2021/09/17 10:12:46;;;;;;;6.25;1.92;;;18.20;99.90;;;;;;4858447;29;20045;-77
2021/09/17 10:15:13;;;;;;;8.05;2.45;;;18.30;99.90;;;;;;4858310;29;20052;-77
2021/09/17 10:17:39;;;;;;;7.05;2.25;;;18.20;99.90;;;;;;4858649;29;20041;-77
2021/09/17 10:20:10;;;;;;;4.32;2.10;;;18.20;99.90;;;;;;4842923;29;20081;-77
2021/09/17 10:22:51;;;;;;;11.15;2.72;;;18.20;99.90;;;;;;4858012;29;20050;-77
2021/09/17 10:25:20;;;;;;;4.80;2.30;;;18.30;99.90;;;;;;4857782;29;20495;-77
2021/09/17 10:28:01;;;;;;;5.68;2.03;;;18.30;99.90;;;;;;4856151;29;20084;-77
2021/09/17 10:30:31;;;;;;;5.78;2.53;;;18.30;99.90;;;;;;4842248;29;20455;-77
2021/09/17 10:32:57;;;;;;;7.00;2.85;;;18.30;99.90;;;;;;4857534;29;20045;-77
2021/09/17 10:35:31;;;;;;;6.47;3.08;;;18.30;99.90;;;;;;4859064;29;20105;-77
2021/09/17 10:38:27;;;;;;;5.90;2.55;;;18.30;99.90;;;;;;4857965;29;20179;-77
2021/09/17 10:40:53;;;;;;;8.07;2.45;;;18.30;99.90;;;;;;4858540;29;20150;-77
2021/09/17 10:43:26;;;;;;;9.50;2.42;;;18.20;99.90;;;;;;4857721;29;20077;-77
2021/09/17 10:46:05;;;;;;;6.03;2.47;;;18.10;99.90;;;;;;4886096;29;20782;-76
2021/09/17 10:48:51;;;;;;;6.65;2.17;;;18.10;99.90;;;;;;4857757;29;20117;-77
2021/09/17 10:51:35;;;;;;;5.63;2.03;;;17.90;99.90;;;;;;4858870;29;20046;-77
2021/09/17 10:54:12;;;;;;;6.10;2.28;;;18.10;99.90;;;;;;4856472;29;20050;-78
2021/09/17 10:56:47;;;;;;;5.63;2.25;;;18.10;99.90;;;;;;4841879;29;20057;-79
2021/09/17 10:59:25;;;;;;;5.38;2.22;;;18.10;99.90;;;;;;4856467;29;20086;-79
2021/09/17 11:01:59;;;;;;;3.97;2.15;;;18.10;99.90;;;;;;4857762;29;20064;-79
2021/09/17 11:04:27;;;;;;;4.00;1.85;;;18.00;99.90;;;;;;4856289;29;20474;-77
2021/09/17 11:06:55;;;;;;;5.63;2.30;;;18.00;99.90;;;;;;4842454;29;20195;-77
2021/09/17 11:09:41;;;;;;;3.35;2.05;;;18.10;99.90;;;;;;4857671;29;20387;-77
2021/09/17 11:12:35;;;;;;;6.47;1.80;;;18.10;99.90;;;;;;4856724;29;20538;-77
2021/09/17 11:15:19;;;;;;;4.03;1.85;;;18.10;99.90;;;;;;4855146;29;20430;-77
2021/09/17 11:17:56;;;;;;;3.90;1.67;;;18.20;99.90;;;;;;4841429;29;20518;-77
2021/09/17 11:20:27;;;;;;;6.95;2.00;;;18.20;99.90;;;;;;4856415;29;20157;-77
2021/09/17 11:23:00;;;;;;;7.15;2.40;;;18.30;99.90;;;;;;4841138;29;20422;-77
2021/09/17 11:25:39;;;;;;;9.35;2.20;;;18.30;99.90;;;;;;4840205;29;20077;-79
2021/09/17 11:31:53;;;;;;;;;;;18.20;99.90;;;;;;4863045;29;20041;-79
2021/09/17 11:34:22;;;;;;;5.28;1.65;;;18.20;99.90;;;;;;4856862;29;20649;-78
2021/09/17 11:36:52;;;;;;;6.70;1.95;;;18.20;99.90;;;;;;4856929;29;20084;-78
2021/09/17 11:39:28;;;;;;;7.22;1.67;;;18.30;99.90;;;;;;4856374;29;20085;-78
2021/09/17 11:41:57;;;;;;;3.83;1.65;;;18.30;99.90;;;;;;4857895;29;20053;-78
2021/09/17 11:44:48;;;;;;;8.13;2.28;;;18.20;99.90;;;;;;4856158;29;20432;-76
2021/09/17 11:47:52;;;;;;;6.43;1.73;;;18.30;99.90;;;;;;4840746;29;20041;-77
2021/09/17 11:50:24;;;;;;;4.32;2.08;;;18.30;99.90;;;;;;4842789;29;20061;-76
2021/09/17 11:52:55;;;;;;;3.78;1.77;;;18.40;99.90;;;;;;4855728;29;20068;-79
2021/09/17 11:55:25;;;;;;;7.22;2.00;;;18.40;99.90;;;;;;4854324;29;20053;-79
2021/09/17 11:57:57;;;;;;;6.65;2.20;;;18.50;99.90;;;;;;4857737;29;20490;-78
2021/09/17 12:00:29;;;;;;;4.93;1.75;;;18.50;99.90;;;;;;4856307;29;20517;-79
2021/09/17 12:03:06;;;;;;;6.53;2.08;;;18.50;99.90;;;;;;4870959;29;20073;-79
2021/09/17 12:05:38;;;;;;;4.47;2.08;;;18.60;99.90;;;;;;4826786;29;20475;-79
2021/09/17 12:08:05;;;;;;;5.15;2.35;;;18.60;99.90;;;;;;4856498;29;20041;-79
2021/09/17 12:10:36;;;;;;;4.88;1.90;;;18.60;99.90;;;;;;4857791;29;20045;-79
2021/09/17 12:13:07;;;;;;;4.03;2.00;;;18.60;99.90;;;;;;4841086;29;20124;-78
2021/09/17 12:15:38;;;;;;;5.57;2.42;;;18.60;99.90;;;;;;4857616;29;20037;-77
2021/09/17 12:18:09;;;;;;;4.85;2.30;;;18.50;99.90;;;;;;4855380;29;20073;-77
2021/09/17 12:20:59;;;;;;;8.48;2.28;;;18.50;99.90;;;;;;4856244;29;20074;-78
2021/09/17 12:23:31;;;;;;;5.65;1.95;;;18.40;99.90;;;;;;4827929;29;20096;-78
2021/09/17 12:26:12;;;;;;;4.88;2.20;;;18.40;99.90;;;;;;4855918;29;20041;-78
2021/09/17 12:28:48;;;;;;;8.70;2.28;;;18.30;99.90;;;;;;4855622;29;20048;-77
2021/09/17 12:31:36;;;;;;;4.60;2.10;;;18.40;99.90;;;;;;4855575;29;20529;-78
2021/09/17 12:34:09;;;;;;;6.25;2.05;;;18.40;99.90;;;;;;4840334;29;20103;-78
2021/09/17 12:36:40;;;;;;;6.93;1.58;;;18.30;99.90;;;;;;4855466;29;20498;-78
2021/09/17 12:39:08;;;;;;;6.10;2.05;;;18.30;99.90;;;;;;4854174;29;20045;-78
2021/09/17 12:41:38;;;;;;;6.20;2.00;;;18.30;99.90;;;;;;4855391;29;20368;-78
2021/09/17 12:44:09;;;;;;;6.50;2.25;;;18.30;99.90;;;;;;4854692;29;20050;-79
2021/09/17 12:46:39;;;;;;;6.18;2.05;;;18.30;99.90;;;;;;4855097;29;20057;-78
2021/09/17 12:49:05;;;;;;;5.93;1.70;;;18.40;99.90;;;;;;4856309;29;20045;-79
2021/09/17 12:51:31;;;;;;;9.32;2.15;;;18.40;99.90;;;;;;4854800;29;20145;-79
2021/09/17 12:54:08;;;;;;;4.60;2.05;;;18.50;99.90;;;;;;4839216;29;20136;-79